Time;durP1;ratioP1;P1;durP2;ratioP2;P2;SDS_P1;SDS_P2;PMS_P1;PMS_P2;Temp;Humidity;BMP_temperature;BMP_pressure;BME280_temperature;BME280_humidity;BME280_pressure;Samples;Min_cycle;Max_cycle;Signal;HPM_P1;HPM_P2
2023/04/13 00:02:24;;;;;;;;;;;12.10;99.90;;;;;;5074791;28;19917;-75
2023/04/13 00:04:50;;;;;;;;;;;12.00;99.90;;;;;;5075944;28;19915;-74
2023/04/13 00:07:17;;;;;;;;;;;12.10;99.90;;;;;;5074270;28;19916;-74
2023/04/13 00:09:46;;;;;;;;;;;12.00;99.90;;;;;;5076099;28;19909;-74
2023/04/13 00:12:12;;;;;;;;;;;12.00;99.90;;;;;;5075940;28;19912;-75
2023/04/13 00:14:38;;;;;;;;;;;12.10;99.90;;;;;;5073998;28;19920;-76
2023/04/13 00:17:04;;;;;;;;;;;12.20;99.90;;;;;;5074128;28;19966;-74
2023/04/13 00:19:30;;;;;;;;;;;12.20;99.90;;;;;;5076922;28;19908;-74
2023/04/13 00:21:56;;;;;;;;;;;12.30;99.90;;;;;;5077383;28;20492;-75
2023/04/13 00:24:22;;;;;;;;;;;12.30;99.90;;;;;;5076303;28;19916;-74
2023/04/13 00:26:47;;;;;;;;;;;12.40;99.90;;;;;;5074131;28;19916;-75
2023/04/13 00:29:13;;;;;;;;;;;12.30;99.90;;;;;;5076268;28;20277;-74
2023/04/13 00:31:39;;;;;;;;;;;12.40;99.90;;;;;;5075913;28;19919;-74
2023/04/13 00:34:05;;;;;;;;;;;12.50;99.90;;;;;;5076077;28;19912;-74
2023/04/13 00:36:31;;;;;;;;;;;12.50;99.90;;;;;;5073882;28;19930;-74
2023/04/13 00:38:57;;;;;;;;;;;12.50;99.90;;;;;;5075431;28;20007;-75
2023/04/13 00:41:23;;;;;;;;;;;12.50;99.90;;;;;;5073960;28;19971;-75
2023/04/13 00:43:49;;;;;;;;;;;12.60;99.90;;;;;;5074988;28;19962;-75
2023/04/13 00:46:18;;;;;;;;;;;12.60;99.90;;;;;;5074330;28;19908;-74
2023/04/13 00:48:46;;;;;;;;;;;12.60;99.90;;;;;;5074943;28;19919;-75
2023/04/13 00:51:13;;;;;;;;;;;12.50;99.90;;;;;;5073880;28;19913;-74
2023/04/13 00:53:39;;;;;;;;;;;12.60;99.90;;;;;;5075573;28;19909;-74
2023/04/13 00:56:05;;;;;;;;;;;12.50;99.90;;;;;;5075127;28;19912;-75
2023/04/13 00:58:31;;;;;;;;;;;12.60;99.90;;;;;;5075347;28;20022;-75
2023/04/13 01:00:57;;;;;;;;;;;12.60;99.90;;;;;;5074953;28;19916;-74
2023/04/13 01:03:24;;;;;;;;;;;12.60;99.90;;;;;;5073984;28;19909;-74
2023/04/13 01:05:55;;;;;;;;;;;12.60;99.90;;;;;;5074619;28;19952;-74
2023/04/13 01:08:27;;;;;;;;;;;12.60;99.90;;;;;;5073822;28;20447;-74
2023/04/13 01:11:00;;;;;;;;;;;12.60;99.90;;;;;;5072343;28;19916;-74
2023/04/13 01:13:25;;;;;;;;;;;12.60;99.90;;;;;;5074702;28;19966;-74
2023/04/13 01:16:14;;;;;;;;;;;12.60;99.90;;;;;;5074250;28;19920;-74
2023/04/13 01:18:44;;;;;;;;;;;12.60;99.90;;;;;;5068047;28;19908;-77
2023/04/13 01:21:11;;;;;;;;;;;12.50;99.90;;;;;;5074665;28;19915;-74
2023/04/13 01:23:49;;;;;;;;;;;12.50;99.90;;;;;;5074468;28;19961;-74
2023/04/13 01:26:16;;;;;;;;;;;12.50;99.90;;;;;;5072747;28;19912;-75
2023/04/13 01:28:41;;;;;;;;;;;12.50;99.90;;;;;;5073311;28;19948;-73
2023/04/13 01:31:10;;;;;;;;;;;12.50;99.90;;;;;;5073052;28;19912;-74
2023/04/13 01:33:40;;;;;;;;;;;12.50;99.90;;;;;;5074994;28;20424;-74
2023/04/13 01:36:06;;;;;;;;;;;12.50;99.90;;;;;;5072252;28;19995;-74
2023/04/13 01:38:31;;;;;;;;;;;12.60;99.90;;;;;;5074563;28;19969;-74
2023/04/13 01:40:57;;;;;;;;;;;12.60;99.90;;;;;;5072977;28;19909;-74
2023/04/13 01:43:23;;;;;;;;;;;12.50;99.90;;;;;;5074695;28;20333;-73
2023/04/13 01:45:59;;;;;;;;;;;12.50;99.90;;;;;;5073206;28;19916;-74
2023/04/13 01:48:31;;;;;;;;;;;12.50;99.90;;;;;;5074457;28;20345;-74
2023/04/13 01:50:59;;;;;;;;;;;12.60;99.90;;;;;;5075062;28;19959;-74
2023/04/13 01:53:30;;;;;;;;;;;12.60;99.90;;;;;;5074972;28;19928;-74
2023/04/13 01:55:56;;;;;;;;;;;12.60;99.90;;;;;;5075360;28;19908;-74
2023/04/13 01:58:26;;;;;;;;;;;12.60;99.90;;;;;;5076257;28;19908;-74
2023/04/13 02:00:55;;;;;;;;;;;12.60;99.90;;;;;;5074620;28;20366;-74
2023/04/13 02:03:21;;;;;;;;;;;12.60;99.90;;;;;;5071921;28;19909;-74
2023/04/13 02:05:47;;;;;;;;;;;12.60;99.90;;;;;;5073360;28;19915;-74
2023/04/13 02:08:13;;;;;;;;;;;12.60;99.90;;;;;;5074126;28;19909;-74
2023/04/13 02:10:38;;;;;;;;;;;12.60;99.90;;;;;;5073856;28;19916;-75
2023/04/13 02:13:04;;;;;;;;;;;12.60;99.90;;;;;;5072488;28;19939;-75
2023/04/13 02:15:33;;;;;;;;;;;12.70;99.90;;;;;;5072624;28;20384;-75
2023/04/13 02:17:59;;;;;;;;;;;12.70;99.90;;;;;;5073849;28;20317;-74
2023/04/13 02:20:24;;;;;;;;;;;12.70;99.90;;;;;;5073068;28;19959;-75
2023/04/13 02:22:50;;;;;;;;;;;12.70;99.90;;;;;;5072788;28;20324;-75
2023/04/13 02:25:16;;;;;;;;;;;12.80;99.90;;;;;;5072485;28;19915;-74
2023/04/13 02:27:42;;;;;;;;;;;12.80;99.90;;;;;;5072593;28;19915;-77
2023/04/13 02:30:11;;;;;;;;;;;12.80;99.90;;;;;;5073101;28;19908;-73
2023/04/13 02:32:39;;;;;;;;;;;12.90;99.90;;;;;;5072652;28;19913;-74
2023/04/13 02:35:11;;;;;;;;;;;12.90;99.90;;;;;;5073271;28;19915;-74
2023/04/13 02:37:38;;;;;;;;;;;12.90;99.90;;;;;;5072250;28;19908;-74
2023/04/13 02:40:11;;;;;;;;;;;12.90;99.90;;;;;;5073441;28;19909;-75
2023/04/13 02:42:37;;;;;;;;;;;12.90;99.90;;;;;;5071997;28;19916;-75
2023/04/13 02:45:05;;;;;;;;;;;12.80;99.90;;;;;;5072077;28;19984;-73
2023/04/13 02:47:32;;;;;;;;;;;12.90;99.90;;;;;;5075491;28;19934;-76
2023/04/13 02:49:58;;;;;;;;;;;12.90;99.90;;;;;;5077993;28;19916;-74
2023/04/13 02:52:23;;;;;;;;;;;12.90;99.90;;;;;;5078062;28;19913;-77
2023/04/13 02:54:53;;;;;;;;;;;12.90;99.90;;;;;;5076337;28;19930;-74
2023/04/13 02:57:22;;;;;;;;;;;12.90;99.90;;;;;;5075946;28;19920;-78
2023/04/13 02:59:48;;;;;;;;;;;12.80;99.90;;;;;;5077731;28;20235;-74
2023/04/13 03:02:13;;;;;;;;;;;12.70;99.90;;;;;;5078220;28;19909;-74
2023/04/13 03:04:39;;;;;;;;;;;12.70;99.90;;;;;;5078378;28;20274;-74
2023/04/13 03:07:08;;;;;;;;;;;12.70;99.90;;;;;;5076905;28;20286;-75
2023/04/13 03:09:36;;;;;;;;;;;12.70;99.90;;;;;;5077638;28;19912;-74
2023/04/13 03:12:02;;;;;;;;;;;12.60;99.90;;;;;;5077642;28;19913;-74
2023/04/13 03:14:29;;;;;;;;;;;12.70;99.90;;;;;;5076912;28;19947;-74
2023/04/13 03:16:56;;;;;;;;;;;12.60;99.90;;;;;;5075694;28;19912;-74
2023/04/13 03:19:22;;;;;;;;;;;12.60;99.90;;;;;;5076725;28;19943;-74
2023/04/13 03:21:48;;;;;;;;;;;12.50;99.90;;;;;;5076753;28;20274;-73
2023/04/13 03:24:14;;;;;;;;;;;12.40;99.90;;;;;;5076751;28;20293;-76
2023/04/13 03:26:40;;;;;;;;;;;12.40;99.90;;;;;;5076630;28;19909;-73
2023/04/13 03:29:06;;;;;;;;;;;12.40;99.90;;;;;;5077054;28;19909;-74
2023/04/13 03:31:32;;;;;;;;;;;12.40;99.90;;;;;;5076208;28;19935;-73
2023/04/13 03:33:58;;;;;;;;;;;12.40;99.90;;;;;;5076642;28;19916;-74
2023/04/13 03:36:24;;;;;;;;;;;12.40;99.90;;;;;;5075264;28;19959;-74
2023/04/13 03:38:49;;;;;;;;;;;12.30;99.90;;;;;;5075710;28;19909;-75
2023/04/13 03:41:15;;;;;;;;;;;12.30;99.90;;;;;;5077158;28;19909;-74
2023/04/13 03:43:40;;;;;;;;;;;12.30;99.90;;;;;;5077190;28;19908;-73
2023/04/13 03:46:06;;;;;;;;;;;12.40;99.90;;;;;;5075299;28;20267;-74
2023/04/13 03:48:32;;;;;;;;;;;12.30;99.90;;;;;;5077377;28;19909;-75
2023/04/13 03:50:58;;;;;;;;;;;12.30;99.90;;;;;;5077072;28;19985;-74
2023/04/13 03:53:24;;;;;;;;;;;12.30;99.90;;;;;;5077069;28;19926;-77
2023/04/13 03:55:50;;;;;;;;;;;12.30;99.90;;;;;;5076298;28;19985;-75
2023/04/13 03:58:17;;;;;;;;;;;12.40;99.90;;;;;;5075795;28;19931;-73
2023/04/13 04:00:42;;;;;;;;;;;12.40;99.90;;;;;;5078153;28;19908;-74
2023/04/13 04:03:08;;;;;;;;;;;12.30;99.90;;;;;;5076917;28;19908;-75
2023/04/13 04:05:34;;;;;;;;;;;12.40;99.90;;;;;;5076196;28;20416;-73
2023/04/13 04:07:59;;;;;;;;;;;12.40;99.90;;;;;;5078654;28;19932;-73
2023/04/13 04:10:26;;;;;;;;;;;12.40;99.90;;;;;;5075344;28;19932;-74
2023/04/13 04:12:51;;;;;;;;;;;12.40;99.90;;;;;;5075957;28;19943;-74
2023/04/13 04:15:17;;;;;;;;;;;12.40;99.90;;;;;;5075558;28;19908;-74
2023/04/13 04:17:43;;;;;;;;;;;12.50;99.90;;;;;;5074698;28;20018;-74
2023/04/13 04:20:09;;;;;;;;;;;12.50;99.90;;;;;;5075678;28;19908;-73
2023/04/13 04:22:35;;;;;;;;;;;12.50;99.90;;;;;;5077203;28;19920;-74
2023/04/13 04:25:01;;;;;;;;;;;12.60;99.90;;;;;;5076525;28;20394;-74
2023/04/13 04:27:26;;;;;;;;;;;12.60;99.90;;;;;;5076111;28;19923;-74
2023/04/13 04:29:53;;;;;;;;;;;12.70;99.90;;;;;;5076182;28;19908;-73
2023/04/13 04:32:22;;;;;;;;;;;12.70;99.90;;;;;;5076055;28;19923;-73
2023/04/13 04:34:51;;;;;;;;;;;12.70;99.90;;;;;;5074522;28;19908;-74
2023/04/13 04:37:20;;;;;;;;;;;12.80;99.90;;;;;;5075810;28;20054;-74
2023/04/13 04:39:47;;;;;;;;;;;12.80;99.90;;;;;;5075795;28;19916;-75
2023/04/13 04:42:13;;;;;;;;;;;12.90;99.90;;;;;;5074415;28;19909;-75
2023/04/13 04:44:39;;;;;;;;;;;12.90;99.90;;;;;;5075869;28;19978;-75
2023/04/13 04:47:04;;;;;;;;;;;12.90;99.90;;;;;;5074300;28;20594;-74
2023/04/13 04:49:30;;;;;;;;;;;12.90;99.90;;;;;;5074178;28;19912;-74
2023/04/13 04:51:56;;;;;;;;;;;12.90;99.90;;;;;;5074849;28;19931;-74
2023/04/13 04:54:22;;;;;;;;;;;12.90;99.90;;;;;;5075437;28;20278;-74
2023/04/13 04:56:49;;;;;;;;;;;13.00;99.90;;;;;;5074354;28;19908;-74
2023/04/13 04:59:14;;;;;;;;;;;13.00;99.90;;;;;;5073977;28;19912;-74
2023/04/13 05:01:41;;;;;;;;;;;13.00;99.90;;;;;;5073776;28;19961;-74
2023/04/13 05:04:07;;;;;;;;;;;13.00;99.90;;;;;;5074146;28;19992;-74
2023/04/13 05:06:33;;;;;;;;;;;13.00;99.90;;;;;;5075064;28;19965;-74
2023/04/13 05:09:05;;;;;;;;;;;13.10;99.90;;;;;;5073931;28;19940;-74
2023/04/13 05:11:31;;;;;;;;;;;13.20;99.90;;;;;;5074950;28;19912;-75
2023/04/13 05:13:57;;;;;;;;;;;13.20;99.90;;;;;;5074959;28;19908;-74
2023/04/13 05:16:23;;;;;;;;;;;13.20;99.90;;;;;;5074225;28;19908;-73
2023/04/13 05:18:49;;;;;;;;;;;13.30;99.90;;;;;;5074977;28;19908;-74
2023/04/13 05:21:15;;;;;;;;;;;13.30;99.90;;;;;;5074592;28;20325;-75
2023/04/13 05:23:42;;;;;;;;;;;13.30;99.90;;;;;;5075565;28;20252;-74
2023/04/13 05:26:08;;;;;;;;;;;13.30;99.90;;;;;;5073951;28;19967;-74
2023/04/13 05:28:34;;;;;;;;;;;13.30;99.90;;;;;;5075143;28;19961;-74
2023/04/13 05:31:03;;;;;;;;;;;13.30;99.90;;;;;;5075388;28;20366;-74
2023/04/13 05:33:29;;;;;;;;;;;13.30;99.90;;;;;;5072658;28;20422;-74
2023/04/13 05:35:55;;;;;;;;;;;13.30;99.90;;;;;;5072149;28;19948;-74
2023/04/13 05:38:21;;;;;;;;;;;13.30;99.90;;;;;;5072575;28;19915;-75
2023/04/13 05:40:47;;;;;;;;;;;13.40;99.90;;;;;;5073799;28;20414;-74
2023/04/13 05:43:13;;;;;;;;;;;13.40;99.90;;;;;;5074089;28;19955;-73
2023/04/13 05:45:38;;;;;;;;;;;13.40;99.90;;;;;;5071518;28;19932;-73
2023/04/13 05:48:04;;;;;;;;;;;13.40;99.90;;;;;;5072990;28;19966;-73
2023/04/13 05:50:30;;;;;;;;;;;13.50;99.90;;;;;;5074599;28;20015;-73
2023/04/13 05:52:58;;;;;;;;;;;13.50;99.90;;;;;;5074911;28;19919;-73
2023/04/13 05:55:25;;;;;;;;;;;13.50;99.90;;;;;;5073600;28;19913;-73
2023/04/13 05:57:50;;;;;;;;;;;13.40;99.90;;;;;;5074313;28;19963;-73
2023/04/13 06:00:18;;;;;;;;;;;13.40;99.90;;;;;;5073421;28;19909;-74
2023/04/13 06:02:46;;;;;;;;;;;13.40;99.90;;;;;;5074223;28;19959;-76
2023/04/13 06:05:15;;;;;;;;;;;13.50;99.90;;;;;;5074320;28;19944;-72
2023/04/13 06:07:43;;;;;;;;;;;13.60;99.90;;;;;;5075352;28;19927;-74
2023/04/13 06:10:09;;;;;;;;;;;13.60;99.90;;;;;;5075012;28;19915;-74
2023/04/13 06:12:35;;;;;;;;;;;13.70;99.90;;;;;;5075878;28;19912;-74
2023/04/13 06:15:01;;;;;;;;;;;13.70;99.90;;;;;;5074944;28;19909;-73
2023/04/13 06:17:26;;;;;;;;;;;13.70;99.90;;;;;;5075328;28;19962;-73
2023/04/13 06:19:53;;;;;;;;;;;13.80;99.90;;;;;;5075939;28;19970;-74
2023/04/13 06:22:19;;;;;;;;;;;13.80;99.90;;;;;;5074219;28;20364;-73
2023/04/13 06:24:44;;;;;;;;;;;13.90;99.90;;;;;;5077580;28;19916;-74
2023/04/13 06:27:10;;;;;;;;;;;13.80;99.90;;;;;;5076010;28;19909;-74
2023/04/13 06:29:36;;;;;;;;;;;13.80;99.90;;;;;;5075996;28;20009;-73
2023/04/13 06:32:03;;;;;;;;;;;13.80;99.90;;;;;;5077060;28;19920;-73
2023/04/13 06:34:29;;;;;;;;;;;13.80;99.90;;;;;;5077263;28;20444;-73
2023/04/13 06:36:54;;;;;;;;;;;13.90;99.90;;;;;;5077141;28;19912;-73
2023/04/13 06:39:20;;;;;;;;;;;13.80;99.90;;;;;;5076861;28;20359;-73
2023/04/13 06:41:47;;;;;;;;;;;13.80;99.90;;;;;;5075621;28;19912;-73
2023/04/13 06:44:12;;;;;;;;;;;13.80;99.90;;;;;;5074075;28;19908;-73
2023/04/13 06:46:38;;;;;;;;;;;13.80;99.90;;;;;;5074947;28;19915;-72
2023/04/13 06:49:04;;;;;;;;;;;13.70;99.90;;;;;;5076131;28;19912;-73
2023/04/13 06:51:30;;;;;;;;;;;13.80;99.90;;;;;;5076517;28;20007;-72
2023/04/13 06:53:55;;;;;;;;;;;13.80;99.90;;;;;;5076731;28;19913;-73
2023/04/13 06:56:21;;;;;;;;;;;13.70;99.90;;;;;;5076140;28;20484;-72
2023/04/13 06:58:47;;;;;;;;;;;13.70;99.90;;;;;;5076625;28;19909;-73
2023/04/13 07:01:12;;;;;;;;;;;13.70;99.90;;;;;;5076358;28;19919;-73
2023/04/13 07:03:38;;;;;;;;;;;13.70;99.90;;;;;;5076917;28;19908;-74
2023/04/13 07:06:04;;;;;;;;;;;13.60;99.90;;;;;;5074792;28;20361;-73
2023/04/13 07:08:31;;;;;;;;;;;13.60;99.90;;;;;;5075079;28;20286;-73
2023/04/13 07:10:56;;;;;;;;;;;13.50;99.90;;;;;;5076657;28;19916;-74
2023/04/13 07:13:25;;;;;;;;;;;13.50;99.90;;;;;;5076750;28;20412;-73
2023/04/13 07:15:51;;;;;;;;;;;13.50;99.90;;;;;;5076279;28;19935;-73
2023/04/13 07:18:17;;;;;;;;;;;13.40;99.90;;;;;;5076401;28;19909;-73
2023/04/13 07:20:42;;;;;;;;;;;13.40;99.90;;;;;;5075156;28;20294;-72
2023/04/13 07:23:08;;;;;;;;;;;13.40;99.90;;;;;;5074888;28;20367;-72
2023/04/13 07:25:34;;;;;;;;;;;13.30;99.90;;;;;;5076604;28;19919;-73
2023/04/13 07:27:59;;;;;;;;;;;13.30;99.90;;;;;;5076176;28;19905;-73
2023/04/13 07:30:26;;;;;;;;;;;13.20;99.90;;;;;;5075853;28;19909;-74
2023/04/13 07:32:52;;;;;;;;;;;13.10;99.90;;;;;;5075813;28;19923;-72
2023/04/13 07:35:17;;;;;;;;;;;13.00;99.90;;;;;;5073271;28;19909;-73
2023/04/13 07:37:45;;;;;;;;;;;13.00;99.90;;;;;;5076341;28;19909;-72
2023/04/13 07:40:11;;;;;;;;;;;12.90;99.90;;;;;;5075596;28;19912;-73
2023/04/13 07:42:38;;;;;;;;;;;12.90;99.90;;;;;;5076329;28;20336;-73
2023/04/13 07:45:04;;;;;;;;;;;12.80;99.90;;;;;;5074587;28;19936;-72
2023/04/13 07:47:29;;;;;;;;;;;12.80;99.90;;;;;;5074366;28;19916;-73
2023/04/13 07:49:55;;;;;;;;;;;12.80;99.90;;;;;;5075594;28;19919;-72
2023/04/13 07:52:21;;;;;;;;;;;12.80;99.90;;;;;;5074056;28;19920;-72
2023/04/13 07:54:47;;;;;;;;;;;12.80;99.90;;;;;;5075444;28;20054;-73
2023/04/13 07:57:13;;;;;;;;;;;12.80;99.90;;;;;;5073500;28;19909;-74
2023/04/13 07:59:38;;;;;;;;;;;12.90;99.90;;;;;;5073993;28;19915;-73
2023/04/13 08:02:04;;;;;;;;;;;12.90;99.90;;;;;;5075893;28;19947;-72
2023/04/13 08:04:30;;;;;;;;;;;12.90;99.90;;;;;;5074213;28;19943;-73
2023/04/13 08:06:57;;;;;;;;;;;12.80;99.90;;;;;;5073378;28;20109;-73
2023/04/13 08:09:22;;;;;;;;;;;12.80;99.90;;;;;;5075428;28;20377;-73
2023/04/13 08:11:48;;;;;;;;;;;12.90;99.90;;;;;;5074064;28;19912;-73
2023/04/13 08:14:14;;;;;;;;;;;12.90;99.90;;;;;;5075464;28;20385;-73
2023/04/13 08:16:40;;;;;;;;;;;12.90;99.90;;;;;;5073431;28;19940;-72
2023/04/13 08:19:06;;;;;;;;;;;13.00;99.90;;;;;;5073666;28;20358;-73
2023/04/13 08:21:31;;;;;;;;;;;13.10;99.90;;;;;;5075259;28;20278;-73
2023/04/13 08:23:57;;;;;;;;;;;13.10;99.90;;;;;;5073731;28;19916;-73
2023/04/13 08:26:23;;;;;;;;;;;13.10;99.90;;;;;;5074580;28;19953;-73
2023/04/13 08:28:49;;;;;;;;;;;13.20;99.90;;;;;;5075347;28;19909;-73
2023/04/13 08:31:15;;;;;;;;;;;13.20;99.90;;;;;;5073328;28;19955;-73
2023/04/13 08:33:42;;;;;;;;;;;13.20;99.90;;;;;;5073539;28;19913;-73
2023/04/13 08:36:07;;;;;;;;;;;13.30;99.90;;;;;;5075159;28;19909;-73
2023/04/13 08:38:33;;;;;;;;;;;13.30;99.90;;;;;;5073903;28;19909;-73
2023/04/13 08:41:01;;;;;;;;;;;13.30;99.90;;;;;;5073360;28;19908;-73
2023/04/13 08:43:26;;;;;;;;;;;13.40;99.90;;;;;;5074903;28;19909;-73
2023/04/13 08:45:52;;;;;;;;;;;13.40;99.90;;;;;;5072732;28;20450;-73
2023/04/13 08:48:18;;;;;;;;;;;13.40;99.90;;;;;;5073250;28;19932;-74
2023/04/13 08:50:49;;;;;;;;;;;13.40;99.90;;;;;;5073112;28;19916;-73
2023/04/13 08:53:16;;;;;;;;;;;13.40;99.90;;;;;;5073102;28;19954;-72
2023/04/13 08:55:42;;;;;;;;;;;13.30;99.90;;;;;;5073306;28;19908;-73
2023/04/13 08:58:11;;;;;;;;;;;13.30;99.90;;;;;;5074031;28;19908;-73
2023/04/13 09:00:37;;;;;;;;;;;13.30;99.90;;;;;;5073777;28;20347;-73
2023/04/13 09:03:05;;;;;;;;;;;13.20;99.90;;;;;;5073017;28;19908;-73
2023/04/13 09:05:32;;;;;;;;;;;13.20;99.90;;;;;;5073164;28;19975;-73
2023/04/13 09:08:00;;;;;;;;;;;13.10;99.90;;;;;;5074363;28;19909;-73
2023/04/13 09:10:26;;;;;;;;;;;13.10;99.90;;;;;;5072639;28;19908;-73
2023/04/13 09:12:52;;;;;;;;;;;13.10;99.90;;;;;;5074010;28;19935;-73
2023/04/13 09:15:18;;;;;;;;;;;13.20;99.90;;;;;;5073997;28;20319;-73
2023/04/13 09:17:44;;;;;;;;;;;13.20;99.90;;;;;;5073678;28;20012;-73
2023/04/13 09:20:13;;;;;;;;;;;13.30;99.90;;;;;;5072593;28;20020;-73
2023/04/13 09:22:39;;;;;;;;;;;13.20;99.90;;;;;;5074371;28;19954;-73
2023/04/13 09:25:06;;;;;;;;;;;13.20;99.90;;;;;;5073321;28;19916;-74
2023/04/13 09:27:33;;;;;;;;;;;13.20;99.90;;;;;;5072381;28;19987;-73
2023/04/13 09:30:01;;;;;;;;;;;13.10;99.90;;;;;;5072436;28;19950;-72
2023/04/13 09:32:27;;;;;;;;;;;13.20;99.90;;;;;;5073882;28;19932;-72
2023/04/13 09:34:56;;;;;;;;;;;13.10;99.90;;;;;;5073795;28;19908;-73
2023/04/13 09:37:22;;;;;;;;;;;13.00;99.90;;;;;;5071723;28;19957;-74
2023/04/13 09:39:47;;;;;;;;;;;13.00;99.90;;;;;;5074488;28;19912;-72
2023/04/13 09:42:16;;;;;;;;;;;13.00;99.90;;;;;;5071823;28;20369;-73
2023/04/13 09:44:42;;;;;;;;;;;13.00;99.90;;;;;;5072787;28;20313;-74
2023/04/13 09:47:08;;;;;;;;;;;13.00;99.90;;;;;;5073730;28;19908;-73
2023/04/13 09:49:37;;;;;;;;;;;12.90;99.90;;;;;;5074337;28;19916;-72
2023/04/13 09:52:04;;;;;;;;;;;12.90;99.90;;;;;;5073690;28;20259;-73
2023/04/13 09:54:29;;;;;;;;;;;12.80;99.90;;;;;;5073704;28;19908;-73
2023/04/13 09:56:56;;;;;;;;;;;12.80;99.90;;;;;;5072766;28;19935;-73
2023/04/13 09:59:22;;;;;;;;;;;12.70;99.90;;;;;;5072091;28;19998;-73
2023/04/13 10:01:48;;;;;;;;;;;12.70;99.90;;;;;;5074273;28;19931;-73
2023/04/13 10:04:14;;;;;;;;;;;12.50;99.90;;;;;;5072161;28;19908;-72
2023/04/13 10:06:42;;;;;;;;;;;12.50;99.90;;;;;;5072087;28;19916;-72
2023/04/13 10:09:08;;;;;;;;;;;12.60;99.90;;;;;;5073384;28;19909;-72
2023/04/13 10:11:38;;;;;;;;;;;12.60;99.90;;;;;;5072088;28;19939;-73
2023/04/13 10:14:08;;;;;;;;;;;12.70;99.90;;;;;;5072913;28;19917;-73
2023/04/13 10:16:39;;;;;;;;;;;12.70;99.90;;;;;;5071929;28;19908;-74
2023/04/13 10:19:12;;;;;;;;;;;12.70;99.90;;;;;;5072460;28;20270;-72
2023/04/13 10:21:41;;;;;;;;;;;12.70;99.90;;;;;;5073300;28;19909;-73
2023/04/13 10:24:11;;;;;;;;;;;12.70;99.90;;;;;;5071825;28;19927;-73
2023/04/13 10:26:37;;;;;;;;;;;12.70;99.90;;;;;;5072325;28;19999;-73
2023/04/13 10:29:03;;;;;;;;;;;12.70;99.90;;;;;;5072628;28;19912;-73
2023/04/13 10:31:39;;;;;;;;;;;12.70;99.90;;;;;;5072603;28;19919;-74
2023/04/13 10:34:08;;;;;;;;;;;12.70;99.90;;;;;;5073496;28;19919;-75
2023/04/13 10:36:38;;;;;;;;;;;12.70;99.90;;;;;;5072948;28;19909;-74
2023/04/13 10:39:03;;;;;;;;;;;12.80;99.90;;;;;;5073355;28;19991;-74
2023/04/13 10:41:29;;;;;;;;;;;12.70;99.90;;;;;;5072256;28;19955;-73
2023/04/13 10:44:01;;;;;;;;;;;12.70;99.90;;;;;;5071980;28;20003;-74
2023/04/13 10:46:27;;;;;;;;;;;12.80;99.90;;;;;;5072656;28;19915;-74
2023/04/13 10:48:54;;;;;;;;;;;12.80;99.90;;;;;;5071821;28;19908;-73
2023/04/13 10:51:19;;;;;;;;;;;12.90;99.90;;;;;;5072983;28;19912;-73
2023/04/13 10:53:45;;;;;;;;;;;13.00;99.90;;;;;;5072390;28;19909;-73
2023/04/13 10:56:15;;;;;;;;;;;13.00;99.90;;;;;;5072399;28;20298;-74
2023/04/13 10:58:41;;;;;;;;;;;13.10;99.90;;;;;;5073040;28;19908;-73
2023/04/13 11:01:07;;;;;;;;;;;13.20;99.90;;;;;;5071900;28;20286;-73
2023/04/13 11:03:32;;;;;;;;;;;13.20;99.90;;;;;;5073043;28;19943;-73
2023/04/13 11:05:58;;;;;;;;;;;13.30;99.90;;;;;;5071761;28;19916;-73
2023/04/13 11:08:26;;;;;;;;;;;13.40;99.90;;;;;;5074538;28;19966;-74
2023/04/13 11:10:55;;;;;;;;;;;13.50;99.90;;;;;;5075353;28;20397;-73
2023/04/13 11:13:23;;;;;;;;;;;13.40;99.90;;;;;;5075833;28;19914;-74
2023/04/13 11:15:50;;;;;;;;;;;13.40;99.90;;;;;;5077134;28;19908;-73
2023/04/13 11:18:25;;;;;;;;;;;13.40;99.90;;;;;;5076622;28;19912;-74
2023/04/13 11:20:51;;;;;;;;;;;13.40;99.90;;;;;;5074738;28;19912;-73
2023/04/13 11:23:17;;;;;;;;;;;13.30;99.90;;;;;;5074466;28;19924;-74
2023/04/13 11:26:00;;;;;;;;;;;13.30;99.90;;;;;;5075734;28;19915;-74
2023/04/13 11:28:56;;;;;;;;;;;13.30;99.90;;;;;;5075691;28;19908;-74
2023/04/13 11:31:22;;;;;;;;;;;13.30;99.90;;;;;;5070888;28;20093;-74
2023/04/13 11:33:48;;;;;;;;;;;13.40;99.90;;;;;;5076275;28;19909;-74
2023/04/13 11:36:15;;;;;;;;;;;13.30;99.90;;;;;;5074219;28;19915;-73
2023/04/13 11:38:42;;;;;;;;;;;13.40;99.90;;;;;;5074315;28;20339;-74
2023/04/13 11:41:08;;;;;;;;;;;13.40;99.90;;;;;;5075620;28;19916;-74
2023/04/13 11:43:33;;;;;;;;;;;13.30;99.90;;;;;;5074174;28;19908;-74
2023/04/13 11:45:59;;;;;;;;;;;13.40;99.90;;;;;;5073589;28;20267;-74
2023/04/13 11:48:26;;;;;;;;;;;13.40;99.90;;;;;;5073884;28;20000;-74
2023/04/13 11:50:51;;;;;;;;;;;13.40;99.90;;;;;;5073533;28;20027;-74
2023/04/13 11:53:17;;;;;;;;;;;13.40;99.90;;;;;;5075348;28;19951;-75
2023/04/13 11:55:43;;;;;;;;;;;13.50;99.90;;;;;;5075211;28;19912;-74
2023/04/13 11:58:10;;;;;;;;;;;13.50;99.90;;;;;;5075269;28;19908;-74
2023/04/13 12:00:36;;;;;;;;;;;13.50;99.90;;;;;;5075468;28;19975;-75
2023/04/13 12:03:04;;;;;;;;;;;13.50;99.90;;;;;;5074948;28;19939;-74
2023/04/13 12:05:30;;;;;;;;;;;13.60;99.90;;;;;;5074993;28;19909;-74
2023/04/13 12:07:56;;;;;;;;;;;13.70;99.90;;;;;;5073827;28;19931;-75
2023/04/13 12:10:25;;;;;;;;;;;13.60;99.90;;;;;;5075745;28;19909;-74
2023/04/13 12:13:01;;;;;;;;;;;13.60;99.90;;;;;;5075206;28;19917;-74
2023/04/13 12:15:28;;;;;;;;;;;13.70;99.90;;;;;;5074955;28;19915;-74
2023/04/13 12:17:54;;;;;;;;;;;13.70;99.90;;;;;;5075061;28;19955;-74
2023/04/13 12:20:21;;;;;;;;;;;13.80;99.90;;;;;;5073551;28;20259;-75
2023/04/13 12:22:46;;;;;;;;;;;13.80;99.90;;;;;;5074747;28;19913;-75
2023/04/13 12:25:19;;;;;;;;;;;13.80;99.90;;;;;;5073289;28;20085;-75
2023/04/13 12:27:45;;;;;;;;;;;13.80;99.90;;;;;;5075129;28;20317;-74
2023/04/13 12:30:11;;;;;;;;;;;13.80;99.90;;;;;;5073635;28;20003;-75
2023/04/13 12:32:45;;;;;;;;;;;13.70;99.90;;;;;;5074604;28;19920;-75
2023/04/13 12:35:11;;;;;;;;;;;13.80;99.90;;;;;;5079352;28;19982;-74
2023/04/13 12:37:40;;;;;;;;;;;13.80;99.90;;;;;;5078840;28;20246;-75
2023/04/13 12:40:09;;;;;;;;;;;13.80;99.90;;;;;;5079499;28;19908;-74
2023/04/13 12:42:34;;;;;;;;;;;13.80;99.90;;;;;;5076818;28;19919;-74
2023/04/13 12:45:00;;;;;;;;;;;13.70;99.90;;;;;;5077865;28;19908;-74
2023/04/13 12:47:25;;;;;;;;;;;13.60;99.90;;;;;;5077552;28;20390;-75
2023/04/13 12:49:51;;;;;;;;;;;13.50;99.90;;;;;;5076193;28;19919;-75
2023/04/13 12:52:17;;;;;;;;;;;13.50;99.90;;;;;;5075634;28;19973;-73
2023/04/13 12:54:43;;;;;;;;;;;13.40;99.90;;;;;;5075422;28;19915;-74
2023/04/13 12:57:08;;;;;;;;;;;13.30;99.90;;;;;;5074620;28;19908;-73
2023/04/13 12:59:34;;;;;;;;;;;13.20;99.90;;;;;;5074797;28;19923;-74
2023/04/13 13:02:00;;;;;;;;;;;13.10;99.90;;;;;;5074630;28;19958;-75
2023/04/13 13:04:28;;;;;;;;;;;13.10;99.90;;;;;;5074873;28;19908;-74
2023/04/13 13:06:54;;;;;;;;;;;13.10;99.90;;;;;;5076202;28;19912;-75
2023/04/13 13:09:20;;;;;;;;;;;13.10;99.90;;;;;;5076791;28;19966;-74
2023/04/13 13:11:45;;;;;;;;;;;13.10;99.90;;;;;;5076107;28;19912;-75
2023/04/13 13:14:11;;;;;;;;;;;13.20;99.90;;;;;;5076364;28;19908;-75
2023/04/13 13:16:37;;;;;;;;;;;13.20;99.90;;;;;;5075039;28;19909;-74
2023/04/13 13:19:02;;;;;;;;;;;13.20;99.90;;;;;;5076746;28;20350;-76
2023/04/13 13:21:28;;;;;;;;;;;13.20;99.90;;;;;;5077663;28;19912;-74
2023/04/13 13:23:53;;;;;;;;;;;13.30;99.90;;;;;;5077433;28;19920;-74
2023/04/13 13:26:19;;;;;;;;;;;13.30;99.90;;;;;;5075227;28;19972;-74
2023/04/13 13:28:45;;;;;;;;;;;13.30;99.90;;;;;;5076282;28;19945;-75
2023/04/13 13:31:11;;;;;;;;;;;13.30;99.90;;;;;;5074597;28;20388;-74
2023/04/13 13:33:37;;;;;;;;;;;13.30;99.90;;;;;;5075243;28;19923;-75
2023/04/13 13:36:02;;;;;;;;;;;13.40;99.90;;;;;;5074663;28;19909;-74
2023/04/13 13:38:28;;;;;;;;;;;13.40;99.90;;;;;;5073956;28;19908;-74
2023/04/13 13:40:53;;;;;;;;;;;13.40;99.90;;;;;;5072065;28;19908;-74
2023/04/13 13:43:20;;;;;;;;;;;13.40;99.90;;;;;;5071587;28;19908;-75
2023/04/13 13:45:47;;;;;;;;;;;13.40;99.90;;;;;;5073065;28;19909;-75
2023/04/13 13:48:13;;;;;;;;;;;13.50;99.90;;;;;;5073025;28;19971;-74
2023/04/13 13:50:38;;;;;;;;;;;13.50;99.90;;;;;;5072024;28;19939;-74
2023/04/13 13:53:04;;;;;;;;;;;13.60;99.90;;;;;;5071758;28;19994;-75
2023/04/13 13:55:30;;;;;;;;;;;13.60;99.90;;;;;;5072269;28;19948;-75
2023/04/13 13:57:56;;;;;;;;;;;13.60;99.90;;;;;;5072869;28;19909;-74
2023/04/13 14:00:22;;;;;;;;;;;13.60;99.90;;;;;;5073363;28;20181;-74
2023/04/13 14:02:47;;;;;;;;;;;13.50;99.90;;;;;;5072936;28;19909;-74
2023/04/13 14:05:13;;;;;;;;;;;13.60;99.90;;;;;;5070991;28;19909;-73
2023/04/13 14:07:39;;;;;;;;;;;13.70;99.90;;;;;;5072403;28;19962;-73
2023/04/13 14:10:05;;;;;;;;;;;13.70;99.90;;;;;;5071437;28;19928;-74
2023/04/13 14:12:31;;;;;;;;;;;13.70;99.90;;;;;;5071779;28;19919;-75
2023/04/13 14:14:57;;;;;;;;;;;13.70;99.90;;;;;;5073664;28;19909;-74